Fort Benton (79S)
Fort Benton, MT
Field Elevation: 2869
Lat: 47°50.42N  Long: 110°38.11W
CTAF/Unicom Freq: 122.8000
   
     For Weather-by-Phone, call 406-622-5976
Weather Advisories
4/16/2014 16:40 Z
Altimeter 30.02" Hg
Wind 060° @ 4 KT
Gusts --
Visibility NA
Temperature 2° C (36° F)
Dewpoint 0° C (32° F)
Relative Humidity 87%
Density Altitude --
Condensation Altitude 4,000 feet
Wind Chill 0° C (32° F)
  Wind and Runways
Indicated Runway = 5
History
 
 
More Info
All DigiWx sites map
NOAA Forecast
 
Airport IQ 5010
(6S5) Ravalli County
(S71) Edgar Obie
 
about DigiWx
 
FAA Disclaimer: The data displayed is for advisory purposes only and is not to be used for flight planning or operations. For official data, please call 406-622-5976 to hear the current automated AWOS voice message.
  METAR 79S 161640Z AUTO 06004KT 02/00 A3002